createdAt,value
2019-03-10T00:00:10.480Z,19.20
2019-03-10T00:02:40.761Z,18.80
2019-03-10T00:05:08.700Z,20.43
2019-03-10T00:07:36.969Z,22.87
2019-03-10T00:10:07.010Z,17.57
2019-03-10T00:12:37.881Z,21.65
2019-03-10T00:15:08.631Z,20.90
2019-03-10T00:17:36.904Z,16.10
2019-03-10T00:20:06.655Z,27.27
2019-03-10T00:22:34.795Z,21.33
2019-03-10T00:25:04.328Z,19.93
2019-03-10T00:27:32.838Z,27.10
2019-03-10T00:30:02.619Z,27.90
2019-03-10T00:32:30.789Z,20.90
2019-03-10T00:34:58.991Z,20.72
2019-03-10T00:37:27.207Z,22.17
2019-03-10T00:39:58.013Z,22.75
2019-03-10T00:42:44.638Z,29.87
2019-03-10T00:45:29.729Z,19.77
2019-03-10T00:48:02.389Z,18.17
2019-03-10T00:50:50.642Z,28.63
2019-03-10T00:53:18.762Z,14.07
2019-03-10T00:55:46.901Z,23.13
2019-03-10T00:58:15.197Z,19.40
2019-03-10T01:00:43.337Z,21.10
2019-03-10T01:03:11.562Z,22.13
2019-03-10T01:05:39.759Z,18.60
2019-03-10T01:08:07.887Z,22.50
2019-03-10T01:10:37.512Z,23.57
2019-03-10T01:13:05.755Z,20.47
2019-03-10T01:15:33.967Z,18.73
2019-03-10T01:18:07.363Z,29.47
2019-03-10T01:20:33.175Z,30.70
2019-03-10T01:23:01.386Z,27.10
2019-03-10T01:25:30.271Z,24.40
2019-03-10T01:27:58.522Z,20.93
2019-03-10T01:30:28.224Z,28.60
2019-03-10T01:33:03.772Z,22.80
2019-03-10T01:35:33.842Z,20.33
2019-03-10T01:38:01.993Z,20.27
2019-03-10T01:40:30.159Z,28.30
2019-03-10T01:43:00.296Z,27.45
2019-03-10T01:45:29.776Z,27.37
2019-03-10T01:47:59.331Z,28.40
2019-03-10T01:50:27.762Z,32.30
2019-03-10T01:52:56.100Z,31.77
2019-03-10T01:55:25.476Z,37.17
2019-03-10T01:57:53.608Z,36.73
2019-03-10T02:00:23.332Z,27.17
2019-03-10T02:02:51.609Z,25.50
2019-03-10T02:05:21.262Z,30.97
2019-03-10T02:07:49.458Z,39.30
2019-03-10T02:10:17.623Z,31.13
2019-03-10T02:12:45.814Z,30.13
2019-03-10T02:15:15.214Z,26.17
2019-03-10T02:17:43.463Z,32.70
2019-03-10T02:20:12.843Z,26.37
2019-03-10T02:22:41.075Z,21.43
2019-03-10T02:25:10.921Z,30.17
2019-03-10T02:27:39.120Z,31.23
2019-03-10T02:30:08.778Z,27.83
2019-03-10T02:32:36.902Z,30.47
2019-03-10T02:35:05.676Z,30.03
2019-03-10T02:37:33.895Z,27.20
2019-03-10T02:40:02.112Z,23.47
2019-03-10T02:42:30.276Z,29.10
2019-03-10T02:44:58.412Z,29.40
2019-03-10T02:47:26.697Z,20.33
2019-03-10T02:49:54.986Z,31.80
2019-03-10T02:52:23.212Z,24.90
2019-03-10T02:54:52.143Z,23.60
2019-03-10T02:57:20.261Z,29.30
2019-03-10T02:59:48.821Z,36.33
2019-03-10T03:02:17.032Z,35.35
2019-03-10T03:04:45.206Z,29.23
2019-03-10T03:07:13.427Z,26.68
2019-03-10T03:09:43.538Z,27.37
2019-03-10T03:12:11.456Z,34.00
2019-03-10T03:14:39.707Z,30.17
2019-03-10T03:17:07.926Z,30.40
2019-03-10T03:19:36.063Z,33.10
2019-03-10T03:22:04.220Z,29.47
2019-03-10T03:24:32.564Z,28.87
2019-03-10T03:27:05.311Z,31.30
2019-03-10T03:29:30.606Z,29.07
2019-03-10T03:31:58.743Z,34.23
2019-03-10T03:34:27.421Z,24.23
2019-03-10T03:36:55.605Z,27.93
2019-03-10T03:39:25.470Z,25.57
2019-03-10T03:41:53.683Z,22.70
2019-03-10T03:44:21.880Z,25.70
2019-03-10T03:46:50.086Z,23.15
2019-03-10T03:49:18.274Z,16.57
2019-03-10T03:51:47.243Z,28.33
2019-03-10T03:54:27.557Z,18.47
2019-03-10T03:56:45.231Z,20.27
2019-03-10T03:59:13.377Z,24.25
2019-03-10T04:01:43.165Z,25.60
2019-03-10T04:04:11.328Z,20.33
2019-03-10T04:06:39.505Z,13.27
2019-03-10T04:09:08.399Z,15.37
2019-03-10T04:11:36.583Z,18.20
2019-03-10T04:14:04.841Z,15.08
2019-03-10T04:16:35.217Z,17.00
2019-03-10T04:19:04.141Z,25.40
2019-03-10T04:21:33.482Z,15.80
2019-03-10T04:24:01.639Z,14.20
2019-03-10T04:26:29.808Z,18.47
2019-03-10T04:28:57.954Z,12.00
2019-03-10T04:31:26.076Z,11.68
2019-03-10T04:33:54.219Z,18.00
2019-03-10T04:36:26.523Z,19.67
2019-03-10T04:38:54.011Z,20.30
2019-03-10T04:41:22.222Z,13.47
2019-03-10T04:43:51.831Z,12.47
2019-03-10T04:46:19.980Z,18.20
2019-03-10T04:48:48.127Z,15.43
2019-03-10T04:51:16.272Z,14.27
2019-03-10T04:53:44.484Z,14.85
2019-03-10T04:56:17.016Z,15.47
2019-03-10T04:58:47.522Z,14.60
2019-03-10T05:01:15.655Z,14.90
2019-03-10T05:03:44.275Z,15.67
2019-03-10T05:06:12.466Z,14.67
2019-03-10T05:08:40.672Z,18.37
2019-03-10T05:11:08.814Z,22.70
2019-03-10T05:13:37.023Z,23.70
2019-03-10T05:16:05.215Z,18.63
2019-03-10T05:18:33.428Z,23.93
2019-03-10T05:21:01.547Z,26.05
2019-03-10T05:23:31.306Z,28.57
2019-03-10T05:25:59.719Z,21.67
2019-03-10T05:28:28.880Z,20.75
2019-03-10T05:30:59.294Z,20.30
2019-03-10T05:33:27.411Z,17.87
2019-03-10T05:35:59.293Z,26.90
2019-03-10T05:38:27.452Z,15.93
2019-03-10T05:40:56.878Z,22.03
2019-03-10T05:43:25.033Z,22.53
2019-03-10T05:45:53.187Z,26.30
2019-03-10T05:48:21.310Z,26.07
2019-03-10T05:50:49.540Z,15.90
2019-03-10T05:53:18.883Z,23.60
2019-03-10T05:55:47.006Z,19.53
2019-03-10T05:58:15.270Z,17.10
2019-03-10T06:00:43.524Z,20.37
2019-03-10T06:03:18.977Z,19.55
2019-03-10T06:05:47.173Z,27.10
2019-03-10T06:08:16.577Z,27.40
2019-03-10T06:10:45.574Z,18.43
2019-03-10T06:13:22.454Z,23.00
2019-03-10T06:15:50.650Z,21.87
2019-03-10T06:18:18.772Z,22.23
2019-03-10T06:20:46.924Z,21.87
2019-03-10T06:23:15.094Z,13.20
2019-03-10T06:25:44.967Z,19.73
2019-03-10T06:28:13.132Z,16.67
2019-03-10T06:30:41.388Z,13.70
2019-03-10T06:33:09.515Z,10.43
2019-03-10T06:35:37.710Z,10.57
2019-03-10T06:38:05.863Z,14.63
2019-03-10T06:40:33.978Z,13.40
2019-03-10T06:43:02.136Z,10.43
2019-03-10T06:45:30.288Z,13.13
2019-03-10T06:47:58.410Z,12.40
2019-03-10T06:50:26.675Z,7.83
2019-03-10T06:52:54.804Z,10.30
2019-03-10T06:55:22.950Z,9.77
2019-03-10T06:57:51.062Z,8.83
2019-03-10T07:00:19.286Z,13.77
2019-03-10T07:02:47.400Z,9.00
2019-03-10T07:05:15.555Z,10.90
2019-03-10T07:07:43.675Z,12.50
2019-03-10T07:10:15.432Z,6.23
2019-03-10T07:12:44.049Z,8.50
2019-03-10T07:15:12.903Z,11.10
2019-03-10T07:17:41.091Z,9.90
2019-03-10T07:20:10.398Z,7.97
2019-03-10T07:22:38.650Z,9.67
2019-03-10T07:25:09.328Z,8.95
2019-03-10T07:27:45.169Z,12.30
2019-03-10T07:30:35.412Z,6.45
2019-03-10T07:33:08.598Z,8.33
2019-03-10T07:35:56.482Z,8.17
2019-03-10T07:38:37.994Z,6.40
2019-03-10T07:41:23.952Z,7.70
2019-03-10T07:43:53.720Z,6.97
2019-03-10T07:46:40.272Z,10.48
2019-03-10T07:49:25.273Z,6.15
2019-03-10T07:52:06.946Z,6.47
2019-03-10T07:54:51.987Z,6.37
2019-03-10T07:57:22.056Z,6.87
2019-03-10T08:00:08.499Z,5.23
2019-03-10T08:02:47.298Z,10.20
2019-03-10T08:05:22.715Z,10.13
2019-03-10T08:07:58.244Z,10.68
2019-03-10T08:10:33.717Z,5.93
2019-03-10T08:13:21.944Z,6.60
2019-03-10T08:16:06.761Z,6.83
2019-03-10T08:18:51.479Z,3.37
2019-03-10T08:21:37.647Z,8.30
2019-03-10T08:24:10.374Z,6.00
2019-03-10T08:26:40.180Z,4.40
2019-03-10T08:29:21.777Z,7.83
2019-03-10T08:32:08.285Z,5.60
2019-03-10T08:34:50.066Z,6.60
2019-03-10T08:37:36.298Z,6.87
2019-03-10T08:40:07.659Z,7.30
2019-03-10T08:42:52.556Z,9.50
2019-03-10T08:45:25.465Z,6.63
2019-03-10T08:47:58.255Z,7.40
2019-03-10T08:50:31.011Z,4.87
2019-03-10T08:53:00.789Z,4.47
2019-03-10T08:55:45.748Z,6.40
2019-03-10T08:58:18.702Z,4.80
2019-03-10T09:01:00.349Z,6.10
2019-03-10T09:03:30.277Z,5.30
2019-03-10T09:06:05.942Z,7.87
2019-03-10T09:08:40.508Z,8.00
2019-03-10T09:11:25.392Z,6.90
2019-03-10T09:13:55.209Z,5.87
2019-03-10T09:16:30.854Z,5.23
2019-03-10T09:19:16.547Z,6.83
2019-03-10T09:21:46.308Z,6.67
2019-03-10T09:24:28.589Z,5.77
2019-03-10T09:27:08.289Z,4.47
2019-03-10T09:29:43.957Z,10.10
2019-03-10T09:32:29.186Z,8.20
2019-03-10T09:37:56.436Z,7.33
2019-03-10T09:40:42.016Z,5.53
2019-03-10T09:43:16.936Z,6.93
2019-03-10T09:45:46.697Z,3.77
2019-03-10T09:48:19.521Z,9.45
2019-03-10T09:50:49.430Z,34.40
2019-03-10T09:53:34.616Z,13.37
2019-03-10T09:56:54.800Z,12.67
2019-03-10T09:58:42.363Z,9.90
2019-03-10T10:01:33.787Z,10.67
2019-03-10T10:04:03.677Z,16.37
2019-03-10T10:06:33.552Z,15.07
2019-03-10T10:09:18.296Z,16.57
2019-03-10T10:17:58.639Z,12.65
2019-03-10T10:20:40.306Z,14.13
2019-03-10T10:23:11.635Z,7.60
2019-03-10T10:25:46.028Z,7.75
2019-03-10T10:28:18.620Z,8.50
2019-03-10T10:30:52.593Z,4.75
2019-03-10T10:33:23.166Z,10.57
2019-03-10T10:36:14.943Z,7.10
2019-03-10T10:42:10.133Z,7.35
2019-03-10T10:44:41.647Z,6.37
2019-03-10T10:47:54.139Z,5.23
2019-03-10T10:50:09.721Z,7.47
2019-03-10T10:52:51.720Z,10.73
2019-03-10T10:55:24.550Z,6.50
2019-03-10T10:57:57.505Z,7.23
2019-03-10T11:00:43.826Z,16.57
2019-03-10T11:03:16.499Z,25.82
2019-03-10T11:05:52.157Z,20.33
2019-03-10T11:08:22.271Z,16.80
2019-03-10T11:10:54.519Z,32.80
2019-03-10T11:13:41.007Z,19.10
2019-03-10T11:16:25.872Z,12.97
2019-03-10T11:18:55.733Z,17.23
2019-03-10T11:21:36.525Z,19.23
2019-03-10T11:24:06.373Z,26.00
2019-03-10T11:26:51.599Z,17.42
2019-03-10T11:29:38.081Z,13.10
2019-03-10T11:32:22.992Z,8.60
2019-03-10T11:34:55.720Z,22.27
2019-03-10T11:37:37.735Z,17.13
2019-03-10T11:40:21.396Z,14.57
2019-03-10T11:43:00.121Z,21.10
2019-03-10T11:45:38.891Z,28.33
2019-03-10T11:48:11.841Z,27.67
2019-03-10T11:50:59.292Z,19.57
2019-03-10T11:53:37.879Z,28.90
2019-03-10T11:56:13.834Z,14.30
2019-03-10T11:58:49.811Z,19.90
2019-03-10T12:01:19.642Z,13.13
2019-03-10T12:04:05.719Z,12.10
2019-03-10T12:06:37.028Z,14.23
2019-03-10T12:09:09.147Z,17.47
2019-03-10T12:11:37.401Z,38.70
2019-03-10T12:14:08.091Z,29.47
2019-03-10T12:16:36.230Z,30.10
2019-03-10T12:19:04.481Z,21.43
2019-03-10T12:21:33.265Z,24.20
2019-03-10T12:24:01.410Z,27.13
2019-03-10T12:26:29.668Z,25.10
2019-03-10T12:28:57.801Z,21.73
2019-03-10T12:31:27.637Z,15.67
2019-03-10T12:33:55.807Z,20.43
2019-03-10T12:36:25.099Z,22.47
2019-03-10T12:38:53.242Z,21.87
2019-03-10T12:41:21.505Z,11.93
2019-03-10T12:43:49.637Z,8.38
2019-03-10T12:46:18.940Z,16.97
2019-03-10T12:48:47.077Z,9.10
2019-03-10T12:51:27.785Z,11.07
2019-03-10T12:53:48.773Z,12.37
2019-03-10T12:56:19.345Z,11.27
2019-03-10T12:58:50.198Z,16.73
2019-03-10T13:01:18.529Z,11.93
2019-03-10T13:03:58.415Z,5.97
2019-03-10T13:06:19.899Z,6.67
2019-03-10T13:08:48.019Z,5.47
2019-03-10T13:11:16.145Z,9.10
2019-03-10T13:13:44.322Z,13.23
2019-03-10T13:16:12.609Z,15.43
2019-03-10T13:18:42.406Z,10.07
2019-03-10T13:21:10.584Z,15.38
2019-03-10T13:23:40.440Z,17.20
2019-03-10T13:26:08.570Z,11.57
2019-03-10T13:28:36.757Z,13.73
2019-03-10T13:31:07.795Z,27.87
2019-03-10T13:33:36.066Z,10.17
2019-03-10T13:36:04.257Z,6.00
2019-03-10T13:38:32.662Z,9.03
2019-03-10T13:41:05.219Z,11.10
2019-03-10T13:43:33.173Z,5.83
2019-03-10T13:46:06.421Z,9.93
2019-03-10T13:48:34.829Z,3.23
2019-03-10T13:51:05.767Z,8.13
2019-03-10T13:53:33.986Z,6.80
2019-03-10T13:56:44.012Z,14.23
2019-03-10T13:58:36.483Z,5.03
2019-03-10T14:01:04.957Z,6.70
2019-03-10T14:03:37.667Z,4.67
2019-03-10T14:06:03.177Z,11.20
2019-03-10T14:08:31.476Z,8.23
2019-03-10T14:10:59.743Z,3.83
2019-03-10T14:13:29.064Z,8.70
2019-03-10T14:15:57.331Z,8.48
2019-03-10T14:18:29.451Z,3.80
2019-03-10T14:20:57.551Z,7.80
2019-03-10T14:23:25.790Z,10.70
2019-03-10T14:25:53.975Z,6.17
2019-03-10T14:28:22.453Z,7.50
2019-03-10T14:30:58.367Z,36.43
2019-03-10T14:33:22.224Z,27.70
2019-03-10T14:35:52.640Z,3.40
2019-03-10T14:38:20.378Z,10.68
2019-03-10T14:40:51.766Z,7.60
2019-03-10T14:43:19.974Z,7.08
2019-03-10T14:45:52.451Z,3.90
2019-03-10T14:48:20.679Z,4.03
2019-03-10T14:50:48.797Z,4.63
2019-03-10T14:53:19.391Z,4.63
2019-03-10T14:55:47.651Z,3.50
2019-03-10T14:58:15.779Z,2.17
2019-03-10T15:00:43.936Z,7.35
2019-03-10T15:03:16.672Z,5.07
2019-03-10T15:05:44.903Z,4.20
2019-03-10T15:08:17.013Z,6.37
2019-03-10T15:10:45.260Z,2.37
2019-03-10T15:13:15.102Z,4.10
2019-03-10T15:15:44.567Z,5.23
2019-03-10T15:18:12.787Z,3.67
2019-03-10T15:20:40.942Z,4.93
2019-03-10T15:23:09.431Z,3.50
2019-03-10T15:28:20.631Z,4.40
2019-03-10T15:30:50.499Z,4.13
2019-03-10T15:33:18.803Z,1.53
2019-03-10T15:35:46.933Z,0.70
2019-03-10T15:38:15.139Z,1.47
2019-03-10T15:40:43.490Z,1.87
2019-03-10T15:43:12.430Z,2.10
2019-03-10T15:45:46.738Z,1.20
2019-03-10T15:48:10.394Z,1.93
2019-03-10T15:50:40.778Z,1.00
2019-03-10T15:53:08.991Z,2.23
2019-03-10T15:55:37.170Z,0.90
2019-03-10T15:58:05.546Z,1.20
2019-03-10T16:00:33.752Z,1.30
2019-03-10T16:03:01.943Z,1.20
2019-03-10T16:05:33.003Z,4.37
2019-03-10T16:08:04.862Z,0.60
2019-03-10T16:10:33.530Z,1.00
2019-03-10T16:13:01.687Z,1.03
2019-03-10T16:18:06.179Z,1.20
2019-03-10T16:20:36.404Z,0.70
2019-03-10T16:23:04.542Z,1.27
2019-03-10T16:28:12.242Z,1.63
2019-03-10T16:30:40.433Z,1.03
2019-03-10T16:33:13.120Z,0.60
2019-03-10T16:35:52.917Z,0.80
2019-03-10T16:38:11.613Z,1.55
2019-03-10T16:40:39.740Z,1.20
2019-03-10T16:43:09.566Z,1.00
2019-03-10T16:45:37.711Z,1.07
2019-03-10T16:48:10.446Z,1.57
2019-03-10T16:50:40.304Z,0.63
2019-03-10T16:53:11.637Z,1.12
2019-03-10T16:55:39.758Z,1.07
2019-03-10T16:58:08.083Z,0.90
2019-03-10T17:00:36.307Z,1.03
2019-03-10T17:03:04.502Z,0.70
2019-03-10T17:05:34.683Z,0.90
2019-03-10T17:08:02.714Z,0.50
2019-03-10T17:10:30.946Z,1.20
2019-03-10T17:12:59.145Z,0.90
2019-03-10T17:15:29.998Z,0.90
2019-03-10T17:17:58.215Z,1.00
2019-03-10T17:20:28.073Z,1.50
2019-03-10T17:22:56.259Z,1.67
2019-03-10T17:25:25.327Z,3.17
2019-03-10T17:27:56.341Z,2.50
2019-03-10T17:30:25.153Z,6.30
2019-03-10T17:32:53.417Z,2.70
2019-03-10T17:35:27.313Z,5.43
2019-03-10T17:37:55.515Z,3.83
2019-03-10T17:40:26.277Z,3.65
2019-03-10T17:42:54.017Z,5.60
2019-03-10T17:45:27.030Z,4.00
2019-03-10T17:47:55.891Z,4.57
2019-03-10T17:50:26.170Z,4.73
2019-03-10T17:52:54.165Z,7.73
2019-03-10T17:55:22.688Z,4.63
2019-03-10T17:57:52.401Z,4.27
2019-03-10T18:00:25.340Z,3.87
2019-03-10T18:02:55.033Z,4.60
2019-03-10T18:05:23.234Z,4.57
2019-03-10T18:07:54.310Z,5.73
2019-03-10T18:10:22.489Z,3.67
2019-03-10T18:12:59.470Z,4.20
2019-03-10T18:15:27.641Z,2.60
2019-03-10T18:18:01.772Z,8.80
2019-03-10T18:20:26.024Z,4.22
2019-03-10T18:22:56.358Z,6.20
2019-03-10T18:25:24.120Z,4.77
2019-03-10T18:27:53.944Z,6.67
2019-03-10T18:30:26.019Z,4.83
2019-03-10T18:32:54.278Z,3.53
2019-03-10T18:35:22.543Z,8.83
2019-03-10T18:37:50.766Z,5.90
2019-03-10T18:40:20.502Z,3.17
2019-03-10T18:42:48.727Z,6.57
2019-03-10T18:45:18.811Z,3.40
2019-03-10T18:47:47.082Z,1.60
2019-03-10T18:50:18.564Z,2.27
2019-03-10T18:52:46.941Z,1.80
2019-03-10T18:55:16.405Z,3.17
2019-03-10T18:57:44.548Z,3.10
2019-03-10T19:00:16.572Z,2.57
2019-03-10T19:02:51.807Z,2.43
2019-03-10T19:05:23.107Z,4.10
2019-03-10T19:07:51.305Z,2.73
2019-03-10T19:10:19.605Z,1.40
2019-03-10T19:12:47.875Z,2.17
2019-03-10T19:15:24.222Z,3.45
2019-03-10T19:17:52.485Z,2.33
2019-03-10T19:20:20.640Z,2.17
2019-03-10T19:22:51.505Z,2.80
2019-03-10T19:25:20.467Z,2.40
2019-03-10T19:27:48.676Z,3.70
2019-03-10T19:30:20.765Z,4.75
2019-03-10T19:32:51.578Z,2.23
2019-03-10T19:35:18.901Z,1.57
2019-03-10T19:37:47.123Z,1.77
2019-03-10T19:40:21.573Z,4.20
2019-03-10T19:42:49.817Z,3.20
2019-03-10T19:45:18.765Z,3.33
2019-03-10T19:47:46.886Z,3.65
2019-03-10T19:50:27.012Z,7.37
2019-03-10T19:52:58.024Z,6.97
2019-03-10T19:55:26.359Z,2.50
2019-03-10T19:57:54.500Z,1.30
2019-03-10T20:00:24.965Z,4.93
2019-03-10T20:02:52.707Z,3.60
2019-03-10T20:05:20.878Z,2.83
2019-03-10T20:07:49.755Z,4.97
2019-03-10T20:10:19.422Z,3.17
2019-03-10T20:12:47.977Z,3.70
2019-03-10T20:15:23.865Z,4.33
2019-03-10T20:17:55.631Z,3.60
2019-03-10T20:20:36.052Z,1.17
2019-03-10T20:23:04.176Z,1.03
2019-03-10T20:30:47.808Z,2.53
2019-03-10T20:33:16.081Z,1.77
2019-03-10T20:35:45.831Z,2.83
2019-03-10T20:38:14.151Z,2.43
2019-03-10T20:40:43.587Z,2.73
2019-03-10T20:43:11.850Z,4.53
2019-03-10T20:45:48.657Z,13.93
2019-03-10T20:48:12.686Z,27.77
2019-03-10T20:50:42.749Z,19.07
2019-03-10T20:53:18.759Z,8.73
2019-03-10T20:56:14.834Z,4.43
2019-03-10T20:58:24.712Z,6.03
2019-03-10T21:01:00.187Z,3.70
2019-03-10T21:03:28.323Z,4.07
2019-03-10T21:06:07.111Z,2.43
2019-03-10T21:08:37.336Z,4.30
2019-03-10T21:11:08.577Z,3.17
2019-03-10T21:13:47.157Z,2.77
2019-03-10T21:16:16.821Z,4.13
2019-03-10T21:18:46.630Z,5.23
2019-03-10T21:21:15.588Z,6.03
2019-03-10T21:23:43.894Z,6.90
2019-03-10T21:26:12.071Z,5.80
2019-03-10T21:28:43.417Z,5.53
2019-03-10T21:31:11.540Z,5.25
2019-03-10T21:33:42.935Z,4.13
2019-03-10T21:36:11.113Z,5.27
2019-03-10T21:38:41.158Z,5.50
2019-03-10T21:41:14.177Z,9.10
2019-03-10T21:43:39.216Z,10.73
2019-03-10T21:46:07.774Z,9.67
2019-03-10T21:48:36.020Z,7.60
2019-03-10T21:51:04.249Z,9.97
2019-03-10T21:53:32.505Z,10.30
2019-03-10T21:56:00.851Z,8.93
2019-03-10T21:58:29.766Z,9.77
2019-03-10T22:00:57.959Z,9.37
2019-03-10T22:03:26.265Z,9.30
2019-03-10T22:05:54.431Z,7.30
2019-03-10T22:08:22.569Z,9.47
2019-03-10T22:10:50.710Z,7.27
2019-03-10T22:13:18.889Z,8.73
2019-03-10T22:15:50.228Z,8.53
2019-03-10T22:18:19.982Z,10.37
2019-03-10T22:20:48.642Z,11.40
2019-03-10T22:23:17.135Z,13.33
2019-03-10T22:25:45.317Z,10.60
2019-03-10T22:28:13.481Z,10.33
2019-03-10T22:30:41.589Z,8.33
2019-03-10T22:33:11.281Z,11.37
2019-03-10T22:35:39.411Z,8.63
2019-03-10T22:38:07.610Z,15.77
2019-03-10T22:40:35.873Z,7.55
2019-03-10T22:43:04.008Z,6.83
2019-03-10T22:45:32.126Z,6.67
2019-03-10T22:48:00.316Z,8.77
2019-03-10T22:50:28.471Z,13.65
2019-03-10T22:52:56.668Z,9.87
2019-03-10T22:55:24.840Z,16.97
2019-03-10T22:57:53.069Z,8.68
2019-03-10T23:00:24.375Z,8.98
2019-03-10T23:02:52.483Z,8.18
2019-03-10T23:05:20.702Z,8.43
2019-03-10T23:07:49.568Z,6.87
2019-03-10T23:10:17.723Z,4.40
2019-03-10T23:12:45.843Z,9.40
2019-03-10T23:15:14.327Z,7.07
2019-03-10T23:17:44.075Z,13.53
2019-03-10T23:20:13.175Z,27.37
2019-03-10T23:22:41.879Z,28.32
2019-03-10T23:25:10.071Z,10.00
2019-03-10T23:27:38.328Z,5.97
2019-03-10T23:30:07.988Z,9.70
2019-03-10T23:32:36.148Z,2.22
2019-03-10T23:35:05.126Z,8.77
2019-03-10T23:37:33.308Z,3.23
2019-03-10T23:40:01.463Z,6.83
2019-03-10T23:42:29.694Z,4.87
2019-03-10T23:44:57.850Z,6.37
2019-03-10T23:47:26.028Z,9.85
2019-03-10T23:49:54.150Z,9.80
2019-03-10T23:52:22.311Z,8.83
2019-03-10T23:54:50.498Z,5.77
2019-03-10T23:57:18.638Z,23.35
2019-03-10T23:59:46.768Z,44.87
